createdAt,value
2023-04-30T22:23:22.769Z,6.40
2023-04-30T22:25:49.237Z,6.90
2023-04-30T22:28:19.310Z,6.80
2023-04-30T22:30:46.152Z,6.73
2023-04-30T22:33:12.681Z,6.43
2023-04-30T22:35:39.310Z,6.60
2023-04-30T22:38:07.216Z,6.40
2023-04-30T22:40:35.059Z,6.63
2023-04-30T22:43:01.888Z,6.43
2023-04-30T22:45:30.139Z,6.97
2023-04-30T22:47:58.919Z,6.43
2023-04-30T22:50:27.208Z,6.07
2023-04-30T22:52:54.364Z,5.37
2023-04-30T22:55:20.967Z,5.87
2023-04-30T22:57:47.347Z,6.37
2023-04-30T23:00:14.269Z,6.17
2023-04-30T23:02:40.725Z,5.70
2023-04-30T23:05:07.755Z,5.70
2023-04-30T23:07:34.137Z,5.80
2023-04-30T23:10:00.584Z,5.60
2023-04-30T23:12:27.558Z,5.80
2023-04-30T23:14:53.987Z,5.20
2023-04-30T23:17:20.579Z,5.37
2023-04-30T23:19:46.971Z,4.97
2023-04-30T23:22:13.348Z,5.10
2023-04-30T23:24:41.083Z,5.30
2023-04-30T23:27:08.045Z,5.70
2023-04-30T23:29:36.132Z,5.40
2023-04-30T23:32:02.981Z,5.50
2023-04-30T23:34:29.410Z,5.80
2023-04-30T23:36:55.823Z,5.97
2023-04-30T23:39:24.251Z,6.07
2023-04-30T23:41:52.153Z,6.70
2023-04-30T23:44:18.601Z,6.73
2023-04-30T23:46:45.091Z,7.03
2023-04-30T23:49:11.560Z,6.10
2023-04-30T23:51:37.953Z,7.43
2023-04-30T23:54:05.743Z,6.80
2023-04-30T23:56:33.850Z,7.37
2023-04-30T23:59:00.371Z,6.97
